createdAt,value
2018-07-17T00:00:31.653Z,23.00
2018-07-17T00:01:34.101Z,23.00
2018-07-17T00:02:36.406Z,23.00
2018-07-17T00:03:38.778Z,23.00
2018-07-17T00:04:41.104Z,23.00
2018-07-17T00:05:43.332Z,22.90
2018-07-17T00:06:46.006Z,22.90
2018-07-17T00:08:50.752Z,22.80
2018-07-17T00:09:53.198Z,22.70
2018-07-17T00:10:55.390Z,22.70
2018-07-17T00:12:59.819Z,22.70
2018-07-17T00:15:04.313Z,22.60
2018-07-17T00:16:06.540Z,22.60
2018-07-17T00:17:08.725Z,22.60
2018-07-17T00:18:10.942Z,22.60
2018-07-17T00:20:15.323Z,22.60
2018-07-17T00:21:17.552Z,22.60
2018-07-17T00:22:19.729Z,22.50
2018-07-17T00:23:21.974Z,22.50
2018-07-17T00:24:24.195Z,22.50
2018-07-17T00:25:26.477Z,22.40
2018-07-17T00:26:28.650Z,22.40
2018-07-17T00:27:30.866Z,22.40
2018-07-17T00:28:33.058Z,22.30
2018-07-17T00:29:35.250Z,22.40
2018-07-17T00:30:37.479Z,22.40
2018-07-17T00:31:39.678Z,22.50
2018-07-17T00:32:41.876Z,22.60
2018-07-17T00:33:44.110Z,22.50
2018-07-17T00:34:46.325Z,22.50
2018-07-17T00:35:48.589Z,22.50
2018-07-17T00:36:50.805Z,22.40
2018-07-17T00:37:52.998Z,22.40
2018-07-17T00:38:55.197Z,22.40
2018-07-17T00:39:57.381Z,22.30
2018-07-17T00:40:59.547Z,22.30
2018-07-17T00:42:01.818Z,22.40
2018-07-17T00:43:04.070Z,22.30
2018-07-17T00:44:06.325Z,22.20
2018-07-17T00:45:08.615Z,22.20
2018-07-17T00:46:10.793Z,22.10
2018-07-17T00:47:13.003Z,22.20
2018-07-17T00:48:15.218Z,22.10
2018-07-17T00:50:19.598Z,22.00
2018-07-17T00:51:21.794Z,22.00
2018-07-17T00:52:23.971Z,22.00
2018-07-17T00:53:26.162Z,21.90
2018-07-17T00:54:28.366Z,21.90
2018-07-17T00:55:30.559Z,21.80
2018-07-17T00:56:32.750Z,21.80
2018-07-17T00:57:34.939Z,21.80
2018-07-17T00:59:39.419Z,21.80
2018-07-17T01:00:44.231Z,21.80
2018-07-17T01:01:52.314Z,21.70
2018-07-17T01:03:00.170Z,21.80
2018-07-17T01:04:08.152Z,21.90
2018-07-17T01:05:16.082Z,21.70
2018-07-17T01:06:24.070Z,21.80
2018-07-17T01:07:32.006Z,21.70
2018-07-17T01:08:39.863Z,21.70
2018-07-17T01:09:47.825Z,21.70
2018-07-17T01:10:55.747Z,21.60
2018-07-17T01:12:03.665Z,21.60
2018-07-17T01:13:05.418Z,21.60
2018-07-17T01:14:11.508Z,21.70
2018-07-17T01:16:21.534Z,21.60
2018-07-17T01:17:24.226Z,21.60
2018-07-17T01:18:26.402Z,21.60
2018-07-17T01:19:28.577Z,21.60
2018-07-17T01:20:30.991Z,21.60
2018-07-17T01:21:33.177Z,21.60
2018-07-17T01:22:35.390Z,21.60
2018-07-17T01:23:37.572Z,21.60
2018-07-17T01:24:39.782Z,21.70
2018-07-17T01:25:42.006Z,21.70
2018-07-17T01:26:44.190Z,21.60
2018-07-17T01:27:46.414Z,21.60
2018-07-17T01:28:48.605Z,21.60
2018-07-17T01:29:50.845Z,21.60
2018-07-17T01:31:55.247Z,21.50
2018-07-17T01:32:57.463Z,21.50
2018-07-17T01:33:59.639Z,21.50
2018-07-17T01:35:01.818Z,21.50
2018-07-17T01:37:07.246Z,21.40
2018-07-17T01:38:09.450Z,21.40
2018-07-17T01:40:13.868Z,21.40
2018-07-17T01:41:16.050Z,21.40
2018-07-17T01:42:18.275Z,21.40
2018-07-17T01:43:20.478Z,21.40
2018-07-17T01:44:22.675Z,21.40
2018-07-17T01:45:24.883Z,21.40
2018-07-17T01:46:27.076Z,21.40
2018-07-17T01:47:29.273Z,21.40
2018-07-17T01:48:31.476Z,21.40
2018-07-17T01:49:33.654Z,21.40
2018-07-17T01:51:38.063Z,21.50
2018-07-17T01:52:40.229Z,21.50
2018-07-17T01:53:42.473Z,21.50
2018-07-17T01:55:46.886Z,21.50
2018-07-17T01:56:49.065Z,21.50
2018-07-17T01:57:51.470Z,21.50
2018-07-17T01:58:53.688Z,21.50
2018-07-17T01:59:55.906Z,21.60
2018-07-17T02:00:58.119Z,21.50
2018-07-17T02:02:00.310Z,21.50
2018-07-17T02:03:02.510Z,21.50
2018-07-17T02:04:04.815Z,21.50
2018-07-17T02:05:07.030Z,21.40
2018-07-17T02:06:09.214Z,21.40
2018-07-17T02:07:11.410Z,21.40
2018-07-17T02:08:13.630Z,21.40
2018-07-17T02:09:15.824Z,21.40
2018-07-17T02:10:17.986Z,21.50
2018-07-17T02:11:20.198Z,21.40
2018-07-17T02:13:24.570Z,21.50
2018-07-17T02:14:26.745Z,21.40
2018-07-17T02:15:28.971Z,21.40
2018-07-17T02:17:33.390Z,21.40
2018-07-17T02:18:35.584Z,21.30
2018-07-17T02:19:37.779Z,21.30
2018-07-17T02:20:39.975Z,21.30
2018-07-17T02:21:42.151Z,21.20
2018-07-17T02:22:44.323Z,21.20
2018-07-17T02:24:48.743Z,21.10
2018-07-17T02:26:53.136Z,21.10
2018-07-17T02:28:57.553Z,21.10
2018-07-17T02:29:59.752Z,21.00
2018-07-17T02:31:01.959Z,21.10
2018-07-17T02:32:04.163Z,20.90
2018-07-17T02:33:06.423Z,20.90
2018-07-17T02:35:10.823Z,20.90
2018-07-17T02:36:13.007Z,21.00
2018-07-17T02:37:15.219Z,20.90
2018-07-17T02:38:17.413Z,20.90
2018-07-17T02:39:19.723Z,20.90
2018-07-17T02:40:21.926Z,20.90
2018-07-17T02:41:24.098Z,20.80
2018-07-17T02:42:26.417Z,20.90
2018-07-17T02:43:28.471Z,20.90
2018-07-17T02:44:30.670Z,20.90
2018-07-17T02:45:32.926Z,20.90
2018-07-17T02:47:37.294Z,20.90
2018-07-17T02:48:39.518Z,20.90
2018-07-17T02:49:41.697Z,20.80
2018-07-17T02:50:43.923Z,20.80
2018-07-17T02:51:46.123Z,20.80
2018-07-17T02:52:48.322Z,20.80
2018-07-17T02:53:50.535Z,20.80
2018-07-17T02:54:52.758Z,20.70
2018-07-17T02:55:54.954Z,20.70
2018-07-17T02:57:59.362Z,20.80
2018-07-17T02:59:01.572Z,20.90
2018-07-17T03:00:03.796Z,20.90
2018-07-17T03:01:05.981Z,20.90
2018-07-17T03:02:08.198Z,20.90
2018-07-17T03:03:10.439Z,20.90
2018-07-17T03:04:12.636Z,20.90
2018-07-17T03:05:14.826Z,20.90
2018-07-17T03:06:17.029Z,20.90
2018-07-17T03:07:19.426Z,21.00
2018-07-17T03:08:21.645Z,20.80
2018-07-17T03:09:23.897Z,20.80
2018-07-17T03:10:26.101Z,20.80
2018-07-17T03:11:28.300Z,20.70
2018-07-17T03:13:32.675Z,20.70
2018-07-17T03:14:34.902Z,20.70
2018-07-17T03:15:37.202Z,20.60
2018-07-17T03:16:39.396Z,20.60
2018-07-17T03:17:41.601Z,20.50
2018-07-17T03:18:43.773Z,20.60
2018-07-17T03:19:45.989Z,20.60
2018-07-17T03:20:48.170Z,20.60
2018-07-17T03:21:50.378Z,20.50
2018-07-17T03:22:52.578Z,20.50
2018-07-17T03:23:54.803Z,20.50
2018-07-17T03:24:57.038Z,20.40
2018-07-17T03:25:59.237Z,20.40
2018-07-17T03:27:01.444Z,20.40
2018-07-17T03:28:03.646Z,20.40
2018-07-17T03:30:08.101Z,20.40
2018-07-17T03:31:10.271Z,20.40
2018-07-17T03:32:12.457Z,20.40
2018-07-17T03:33:14.677Z,20.40
2018-07-17T03:34:16.861Z,20.30
2018-07-17T03:35:19.078Z,20.30
2018-07-17T03:36:21.295Z,20.30
2018-07-17T03:37:23.506Z,20.30
2018-07-17T03:38:25.686Z,20.30
2018-07-17T03:39:27.890Z,20.40
2018-07-17T03:40:30.079Z,20.40
2018-07-17T03:42:34.510Z,20.30
2018-07-17T03:43:36.718Z,20.30
2018-07-17T03:44:38.919Z,20.30
2018-07-17T03:46:43.332Z,20.30
2018-07-17T03:47:45.551Z,20.30
2018-07-17T03:48:47.848Z,20.30
2018-07-17T03:49:50.064Z,20.30
2018-07-17T03:50:52.275Z,20.20
2018-07-17T03:51:54.449Z,20.20
2018-07-17T03:52:56.661Z,20.40
2018-07-17T03:53:58.888Z,20.20
2018-07-17T03:55:01.102Z,20.30
2018-07-17T03:56:03.333Z,20.30
2018-07-17T03:57:05.617Z,20.20
2018-07-17T03:58:07.793Z,20.30
2018-07-17T03:59:09.994Z,20.20
2018-07-17T04:00:12.185Z,20.40
2018-07-17T04:01:14.444Z,20.30
2018-07-17T04:02:16.610Z,20.30
2018-07-17T04:03:18.854Z,20.30
2018-07-17T04:04:21.072Z,20.40
2018-07-17T04:05:23.234Z,20.30
2018-07-17T04:06:25.438Z,20.30
2018-07-17T04:07:27.639Z,20.30
2018-07-17T04:08:29.812Z,20.30
2018-07-17T04:09:31.990Z,20.30
2018-07-17T04:10:34.196Z,20.30
2018-07-17T04:11:36.426Z,20.40
2018-07-17T04:12:38.606Z,20.30
2018-07-17T04:13:40.785Z,20.30
2018-07-17T04:14:42.969Z,20.30
2018-07-17T04:15:45.173Z,20.30
2018-07-17T04:17:54.291Z,20.30
2018-07-17T04:18:56.479Z,20.30
2018-07-17T04:19:58.659Z,20.30
2018-07-17T04:21:00.875Z,20.30
2018-07-17T04:22:03.102Z,20.30
2018-07-17T04:25:09.950Z,20.20
2018-07-17T04:26:12.130Z,20.20
2018-07-17T04:27:14.335Z,20.20
2018-07-17T04:28:16.553Z,20.20
2018-07-17T04:29:18.795Z,20.20
2018-07-17T04:30:21.043Z,20.20
2018-07-17T04:31:23.250Z,20.20
2018-07-17T04:32:25.453Z,20.20
2018-07-17T04:34:29.865Z,20.20
2018-07-17T04:35:32.101Z,20.20
2018-07-17T04:36:34.306Z,20.20
2018-07-17T04:37:36.491Z,20.20
2018-07-17T04:38:38.665Z,20.30
2018-07-17T04:39:40.826Z,20.20
2018-07-17T04:40:43.073Z,20.20
2018-07-17T04:41:45.285Z,20.20
2018-07-17T04:42:47.488Z,20.30
2018-07-17T04:43:49.692Z,20.20
2018-07-17T04:44:51.886Z,20.20
2018-07-17T04:45:54.145Z,20.20
2018-07-17T04:46:56.344Z,20.30
2018-07-17T04:47:58.521Z,20.20
2018-07-17T04:49:00.760Z,20.20
2018-07-17T04:50:02.990Z,20.30
2018-07-17T04:51:05.207Z,20.20
2018-07-17T04:52:07.412Z,20.20
2018-07-17T04:53:09.609Z,20.30
2018-07-17T04:54:11.786Z,20.30
2018-07-17T04:55:13.997Z,20.40
2018-07-17T04:56:16.247Z,20.30
2018-07-17T04:57:18.447Z,20.30
2018-07-17T04:58:20.652Z,20.40
2018-07-17T04:59:22.839Z,20.30
2018-07-17T05:00:25.074Z,20.40
2018-07-17T05:01:27.349Z,20.30
2018-07-17T05:02:29.533Z,20.30
2018-07-17T05:03:31.758Z,20.30
2018-07-17T05:05:36.165Z,20.30
2018-07-17T05:07:40.629Z,20.30
2018-07-17T05:08:42.822Z,20.40
2018-07-17T05:09:45.015Z,20.40
2018-07-17T05:10:47.203Z,20.40
2018-07-17T05:11:49.416Z,20.40
2018-07-17T05:12:51.634Z,20.40
2018-07-17T05:13:53.811Z,20.40
2018-07-17T05:14:56.027Z,20.50
2018-07-17T05:15:58.203Z,20.50
2018-07-17T05:17:00.427Z,20.50
2018-07-17T05:18:02.625Z,20.50
2018-07-17T05:20:07.088Z,20.60
2018-07-17T05:22:11.544Z,20.60
2018-07-17T05:24:15.921Z,20.70
2018-07-17T05:26:20.365Z,20.70
2018-07-17T05:27:22.589Z,20.80
2018-07-17T05:28:24.778Z,20.80
2018-07-17T05:29:26.986Z,20.80
2018-07-17T05:30:29.194Z,20.80
2018-07-17T05:31:31.393Z,20.80
2018-07-17T05:32:33.607Z,20.90
2018-07-17T05:33:35.833Z,20.90
2018-07-17T05:34:38.599Z,20.90
2018-07-17T05:35:40.787Z,20.90
2018-07-17T05:36:43.023Z,21.00
2018-07-17T05:37:45.278Z,21.00
2018-07-17T05:38:47.467Z,21.10
2018-07-17T05:40:52.034Z,21.10
2018-07-17T05:41:54.260Z,21.20
2018-07-17T05:42:56.482Z,21.30
2018-07-17T05:43:58.672Z,21.20
2018-07-17T05:45:00.867Z,21.30
2018-07-17T05:46:03.125Z,21.40
2018-07-17T05:47:05.376Z,21.40
2018-07-17T05:48:07.637Z,21.40
2018-07-17T05:49:09.830Z,21.40
2018-07-17T05:50:12.242Z,21.50
2018-07-17T05:51:14.466Z,21.60
2018-07-17T05:52:16.672Z,21.60
2018-07-17T05:53:18.870Z,21.70
2018-07-17T05:54:21.119Z,21.80
2018-07-17T05:55:23.322Z,21.90
2018-07-17T05:56:25.511Z,21.90
2018-07-17T05:57:27.720Z,22.00
2018-07-17T05:58:29.939Z,22.00
2018-07-17T05:59:32.166Z,22.00
2018-07-17T06:00:34.347Z,22.00
2018-07-17T06:01:36.546Z,22.10
2018-07-17T06:02:38.886Z,22.20
2018-07-17T06:03:47.815Z,22.30
2018-07-17T06:04:50.019Z,22.40
2018-07-17T06:05:52.222Z,22.50
2018-07-17T06:06:54.427Z,22.60
2018-07-17T06:07:56.645Z,22.60
2018-07-17T06:08:58.879Z,22.60
2018-07-17T06:10:01.225Z,22.70
2018-07-17T06:11:03.479Z,22.80
2018-07-17T06:12:05.714Z,22.80
2018-07-17T06:13:07.930Z,22.90
2018-07-17T06:14:10.187Z,22.90
2018-07-17T06:15:12.407Z,23.00
2018-07-17T06:16:14.613Z,23.10
2018-07-17T06:17:16.858Z,23.20
2018-07-17T06:18:19.103Z,23.30
2018-07-17T06:19:21.884Z,23.40
2018-07-17T06:20:27.099Z,23.50
2018-07-17T06:21:29.362Z,23.60
2018-07-17T06:22:31.603Z,23.70
2018-07-17T06:23:33.792Z,23.80
2018-07-17T06:24:36.010Z,23.90
2018-07-17T06:26:40.465Z,23.90
2018-07-17T06:27:42.668Z,24.10
2018-07-17T06:28:44.890Z,24.00
2018-07-17T06:29:47.071Z,24.10
2018-07-17T06:30:49.274Z,24.10
2018-07-17T06:32:53.725Z,24.20
2018-07-17T06:33:55.920Z,24.30
2018-07-17T06:34:58.141Z,24.30
2018-07-17T06:36:00.334Z,24.30
2018-07-17T06:37:02.561Z,24.30
2018-07-17T06:38:05.007Z,24.30
2018-07-17T06:39:07.734Z,24.40
2018-07-17T06:40:09.955Z,24.40
2018-07-17T06:41:12.176Z,24.50
2018-07-17T06:42:14.358Z,24.50
2018-07-17T06:43:16.793Z,24.60
2018-07-17T06:45:21.329Z,24.60
2018-07-17T06:46:23.592Z,24.60
2018-07-17T06:47:25.798Z,24.60
2018-07-17T06:48:28.004Z,24.60
2018-07-17T06:49:30.202Z,24.60
2018-07-17T06:50:32.513Z,24.60
2018-07-17T06:51:34.647Z,24.50
2018-07-17T06:52:36.889Z,24.50
2018-07-17T06:53:39.089Z,24.50
2018-07-17T06:55:43.563Z,24.60
2018-07-17T06:56:45.883Z,24.60
2018-07-17T06:57:48.090Z,24.70
2018-07-17T06:58:50.294Z,24.60
2018-07-17T06:59:52.530Z,24.60
2018-07-17T07:00:54.775Z,24.60
2018-07-17T07:01:57.014Z,24.60
2018-07-17T07:02:59.249Z,24.50
2018-07-17T07:04:01.473Z,24.50
2018-07-17T07:06:05.963Z,24.50
2018-07-17T07:07:08.166Z,24.50
2018-07-17T07:08:10.364Z,24.50
2018-07-17T07:09:12.591Z,24.40
2018-07-17T07:10:14.802Z,24.50
2018-07-17T07:11:17.050Z,24.50
2018-07-17T07:12:19.194Z,24.60
2018-07-17T07:13:21.395Z,24.70
2018-07-17T07:14:23.639Z,24.70
2018-07-17T07:15:25.868Z,24.70
2018-07-17T07:16:28.090Z,24.70
2018-07-17T07:17:30.290Z,24.70
2018-07-17T07:18:32.572Z,24.70
2018-07-17T07:19:34.801Z,24.70
2018-07-17T07:20:37.011Z,24.70
2018-07-17T07:21:39.226Z,24.70
2018-07-17T07:22:41.859Z,24.80
2018-07-17T07:23:44.067Z,24.80
2018-07-17T07:24:46.255Z,24.90
2018-07-17T07:25:48.438Z,24.90
2018-07-17T07:26:50.636Z,24.90
2018-07-17T07:27:53.446Z,25.00
2018-07-17T07:28:55.676Z,25.00
2018-07-17T07:29:57.878Z,25.00
2018-07-17T07:31:00.897Z,25.10
2018-07-17T07:32:03.111Z,25.10
2018-07-17T07:33:05.522Z,25.10
2018-07-17T07:34:07.719Z,25.20
2018-07-17T07:35:09.921Z,25.20
2018-07-17T07:36:12.153Z,25.30
2018-07-17T07:37:14.403Z,25.30
2018-07-17T07:38:16.528Z,25.30
2018-07-17T07:39:18.742Z,25.30
2018-07-17T07:40:21.190Z,25.30
2018-07-17T07:41:23.414Z,25.30
2018-07-17T07:42:25.591Z,25.40
2018-07-17T07:43:27.770Z,25.40
2018-07-17T07:44:29.958Z,25.50
2018-07-17T07:45:32.196Z,25.50
2018-07-17T07:46:34.443Z,25.60
2018-07-17T07:47:36.628Z,25.60
2018-07-17T07:48:38.884Z,25.70
2018-07-17T07:49:41.046Z,25.70
2018-07-17T07:50:43.269Z,25.70
2018-07-17T07:51:45.509Z,25.70
2018-07-17T07:52:47.738Z,25.70
2018-07-17T07:53:50.288Z,25.80
2018-07-17T07:54:52.504Z,25.80
2018-07-17T07:55:54.722Z,25.90
2018-07-17T07:56:56.965Z,25.90
2018-07-17T07:57:59.206Z,25.90
2018-07-17T07:59:01.455Z,26.00
2018-07-17T08:01:06.010Z,26.00
2018-07-17T08:02:08.237Z,26.10
2018-07-17T08:04:12.822Z,26.10
2018-07-17T08:05:15.039Z,26.10
2018-07-17T08:07:19.419Z,26.10
2018-07-17T08:08:21.646Z,26.20
2018-07-17T08:09:23.870Z,26.30
2018-07-17T08:10:26.079Z,26.30
2018-07-17T08:11:28.289Z,26.30
2018-07-17T08:12:30.553Z,26.30
2018-07-17T08:13:32.745Z,26.30
2018-07-17T08:14:35.012Z,26.30
2018-07-17T08:15:37.183Z,26.30
2018-07-17T08:16:39.369Z,26.30
2018-07-17T08:17:41.954Z,26.40
2018-07-17T08:18:44.168Z,26.40
2018-07-17T08:19:46.366Z,26.50
2018-07-17T08:20:48.552Z,26.40
2018-07-17T08:21:50.773Z,26.50
2018-07-17T08:22:52.997Z,26.50
2018-07-17T08:23:55.198Z,26.60
2018-07-17T08:24:57.555Z,26.60
2018-07-17T08:25:59.826Z,26.60
2018-07-17T08:27:02.034Z,26.70
2018-07-17T08:28:04.290Z,26.70
2018-07-17T08:29:06.498Z,26.80
2018-07-17T08:30:08.699Z,26.80
2018-07-17T08:31:10.910Z,26.90
2018-07-17T08:32:13.130Z,26.80
2018-07-17T08:33:15.337Z,26.90
2018-07-17T08:34:17.548Z,26.90
2018-07-17T08:35:19.746Z,27.00
2018-07-17T08:36:21.946Z,27.00
2018-07-17T08:37:24.243Z,27.00
2018-07-17T08:39:28.677Z,27.10
2018-07-17T08:40:30.907Z,27.10
2018-07-17T08:41:33.106Z,27.20
2018-07-17T08:42:35.354Z,27.20
2018-07-17T08:43:37.567Z,27.20
2018-07-17T08:44:39.758Z,27.20
2018-07-17T08:45:42.337Z,27.20
2018-07-17T08:46:44.541Z,27.20
2018-07-17T08:47:46.765Z,27.10
2018-07-17T08:48:49.011Z,27.10
2018-07-17T08:49:51.336Z,27.10
2018-07-17T08:50:53.537Z,27.10
2018-07-17T08:51:55.715Z,27.10
2018-07-17T08:52:57.922Z,27.20
2018-07-17T08:54:00.160Z,27.20
2018-07-17T08:55:02.410Z,27.30
2018-07-17T08:56:04.634Z,27.30
2018-07-17T08:58:09.106Z,27.40
2018-07-17T08:59:11.311Z,27.40
2018-07-17T09:00:13.526Z,27.50
2018-07-17T09:01:15.770Z,27.50
2018-07-17T09:02:17.991Z,27.50
2018-07-17T09:03:20.240Z,27.50
2018-07-17T09:05:24.871Z,27.60
2018-07-17T09:06:27.128Z,27.70
2018-07-17T09:07:29.335Z,27.70
2018-07-17T09:08:31.554Z,27.70
2018-07-17T09:09:33.734Z,27.70
2018-07-17T09:10:35.982Z,27.80
2018-07-17T09:11:38.164Z,27.80
2018-07-17T09:12:40.366Z,27.80
2018-07-17T09:13:42.573Z,27.90
2018-07-17T09:15:46.994Z,27.90
2018-07-17T09:16:49.169Z,28.00
2018-07-17T09:17:51.378Z,28.00
2018-07-17T09:18:53.587Z,28.00
2018-07-17T09:19:55.774Z,28.10
2018-07-17T09:20:57.985Z,28.10
2018-07-17T09:22:00.165Z,28.10
2018-07-17T09:23:02.403Z,28.20
2018-07-17T09:24:04.630Z,28.30
2018-07-17T09:25:13.644Z,28.30
2018-07-17T09:26:15.842Z,28.30
2018-07-17T09:27:18.077Z,28.30
2018-07-17T09:28:20.329Z,28.30
2018-07-17T09:30:28.866Z,28.30
2018-07-17T09:31:31.072Z,28.30
2018-07-17T09:32:33.278Z,28.40
2018-07-17T09:33:35.512Z,28.40
2018-07-17T09:34:37.662Z,28.40
2018-07-17T09:35:39.842Z,28.40
2018-07-17T09:36:42.042Z,28.50
2018-07-17T09:37:44.243Z,28.50
2018-07-17T09:38:46.412Z,28.50
2018-07-17T09:39:48.590Z,28.50
2018-07-17T09:40:50.803Z,28.50
2018-07-17T09:42:55.242Z,28.50
2018-07-17T09:43:57.446Z,28.50
2018-07-17T09:44:59.651Z,28.50
2018-07-17T09:46:01.900Z,28.50
2018-07-17T09:47:04.267Z,28.60
2018-07-17T09:48:06.450Z,28.60
2018-07-17T09:49:08.658Z,28.70
2018-07-17T09:50:10.883Z,28.70
2018-07-17T09:51:13.077Z,28.80
2018-07-17T09:52:15.266Z,28.80
2018-07-17T09:53:17.608Z,28.80
2018-07-17T09:54:19.904Z,28.80
2018-07-17T09:55:22.052Z,28.80
2018-07-17T09:56:24.296Z,28.90
2018-07-17T09:57:26.549Z,28.90
2018-07-17T09:58:28.758Z,28.90
2018-07-17T09:59:30.957Z,29.00
2018-07-17T10:00:33.152Z,29.00
2018-07-17T10:01:40.995Z,29.00
2018-07-17T10:02:43.183Z,29.00
2018-07-17T10:04:47.809Z,29.10
2018-07-17T10:05:50.003Z,29.10
2018-07-17T10:06:52.206Z,29.20
2018-07-17T10:07:54.396Z,29.20
2018-07-17T10:08:56.644Z,29.20
2018-07-17T10:09:58.868Z,29.30
2018-07-17T10:11:01.114Z,29.30
2018-07-17T10:12:03.445Z,29.30
2018-07-17T10:13:05.734Z,29.30
2018-07-17T10:14:07.998Z,29.40
2018-07-17T10:15:10.282Z,29.30
2018-07-17T10:16:12.478Z,29.40
2018-07-17T10:17:14.737Z,29.40
2018-07-17T10:18:17.053Z,29.40
2018-07-17T10:19:19.271Z,29.40
2018-07-17T10:20:21.547Z,29.40
2018-07-17T10:21:23.737Z,29.50
2018-07-17T10:22:25.969Z,29.50
2018-07-17T10:23:28.183Z,29.50
2018-07-17T10:24:30.399Z,29.60
2018-07-17T10:25:32.609Z,29.60
2018-07-17T10:26:34.809Z,29.60
2018-07-17T10:27:37.533Z,29.70
2018-07-17T10:28:39.779Z,29.70
2018-07-17T10:29:41.982Z,29.70
2018-07-17T10:30:44.180Z,29.70
2018-07-17T10:31:46.405Z,29.70
2018-07-17T10:32:48.583Z,29.80
2018-07-17T10:33:50.787Z,29.80
2018-07-17T10:34:53.007Z,29.80
2018-07-17T10:36:57.421Z,29.80
2018-07-17T10:37:59.621Z,29.80
2018-07-17T10:39:01.876Z,29.70
2018-07-17T10:40:04.623Z,29.60
2018-07-17T10:41:06.826Z,29.60
2018-07-17T10:42:09.054Z,29.50
2018-07-17T10:43:11.282Z,29.50
2018-07-17T10:44:13.473Z,29.40
2018-07-17T10:45:15.696Z,29.30
2018-07-17T10:46:17.919Z,29.30
2018-07-17T10:47:20.106Z,29.20
2018-07-17T10:48:22.322Z,29.10
2018-07-17T10:49:24.513Z,29.10
2018-07-17T10:50:26.693Z,29.20
2018-07-17T10:51:28.882Z,29.20
2018-07-17T10:52:31.082Z,29.20
2018-07-17T10:53:33.262Z,29.30
2018-07-17T10:54:35.438Z,29.40
2018-07-17T10:55:37.741Z,29.40
2018-07-17T10:56:39.999Z,29.50
2018-07-17T10:57:42.174Z,29.50
2018-07-17T10:58:44.414Z,29.50
2018-07-17T10:59:46.630Z,29.50
2018-07-17T11:00:48.879Z,29.50
2018-07-17T11:01:51.046Z,29.60
2018-07-17T11:02:53.333Z,29.60
2018-07-17T11:04:57.851Z,29.70
2018-07-17T11:07:02.393Z,29.80
2018-07-17T11:08:04.641Z,29.90
2018-07-17T11:09:06.912Z,29.90
2018-07-17T11:10:09.074Z,29.90
2018-07-17T11:11:11.321Z,29.90
2018-07-17T11:12:13.539Z,30.00
2018-07-17T11:13:15.738Z,29.70
2018-07-17T11:14:17.948Z,29.80
2018-07-17T11:15:20.170Z,29.80
2018-07-17T11:16:22.338Z,29.70
2018-07-17T11:17:24.559Z,29.80
2018-07-17T11:18:26.738Z,29.80
2018-07-17T11:19:28.913Z,29.80
2018-07-17T11:20:31.110Z,30.00
2018-07-17T11:21:33.363Z,30.00
2018-07-17T11:22:35.814Z,30.00
2018-07-17T11:23:38.091Z,30.10
2018-07-17T11:24:40.390Z,30.10
2018-07-17T11:25:42.613Z,30.20
2018-07-17T11:26:44.975Z,30.20
2018-07-17T11:27:47.171Z,30.30
2018-07-17T11:28:49.381Z,30.30
2018-07-17T11:29:51.577Z,30.30
2018-07-17T11:30:53.797Z,30.40
2018-07-17T11:31:56.040Z,30.40
2018-07-17T11:32:58.269Z,30.40
2018-07-17T11:34:00.451Z,30.50
2018-07-17T11:35:02.721Z,30.50
2018-07-17T11:36:05.009Z,30.50
2018-07-17T11:37:07.214Z,30.50
2018-07-17T11:38:09.411Z,30.50
2018-07-17T11:39:11.582Z,30.60
2018-07-17T11:40:13.775Z,30.70
2018-07-17T11:41:16.026Z,30.60
2018-07-17T11:42:18.226Z,30.50
2018-07-17T11:44:22.710Z,30.40
2018-07-17T11:45:24.943Z,30.30
2018-07-17T11:46:27.117Z,30.30
2018-07-17T11:48:31.613Z,30.20
2018-07-17T11:49:33.797Z,30.20
2018-07-17T11:50:36.032Z,30.20
2018-07-17T11:51:38.230Z,30.30
2018-07-17T11:52:40.425Z,30.30
2018-07-17T11:53:42.605Z,30.40
2018-07-17T11:54:44.825Z,30.50
2018-07-17T11:55:47.011Z,30.50
2018-07-17T11:56:49.193Z,30.60
2018-07-17T11:57:51.654Z,30.70
2018-07-17T11:58:53.963Z,30.80
2018-07-17T11:59:56.129Z,30.80
2018-07-17T12:00:58.317Z,30.80
2018-07-17T12:02:00.559Z,30.80
2018-07-17T12:03:02.782Z,30.80
2018-07-17T12:04:05.261Z,30.80
2018-07-17T12:05:07.467Z,30.80
2018-07-17T12:06:09.690Z,30.80
2018-07-17T12:07:11.943Z,30.80
2018-07-17T12:08:14.157Z,30.90
2018-07-17T12:09:16.337Z,30.90
2018-07-17T12:10:18.669Z,31.00
2018-07-17T12:11:20.845Z,31.00
2018-07-17T12:12:23.050Z,31.00
2018-07-17T12:13:25.274Z,31.10
2018-07-17T12:14:27.490Z,31.20
2018-07-17T12:15:29.698Z,31.30
2018-07-17T12:16:31.904Z,31.30
2018-07-17T12:17:34.127Z,31.30
2018-07-17T12:18:36.337Z,31.40
2018-07-17T12:19:38.535Z,31.40
2018-07-17T12:20:40.790Z,31.30
2018-07-17T12:21:43.022Z,31.30
2018-07-17T12:22:45.265Z,31.30
2018-07-17T12:23:47.499Z,31.30
2018-07-17T12:24:49.723Z,31.30
2018-07-17T12:25:51.913Z,31.10
2018-07-17T12:26:54.102Z,31.10
2018-07-17T12:27:56.316Z,31.10
2018-07-17T12:28:58.566Z,31.10
2018-07-17T12:30:00.747Z,31.10
2018-07-17T12:31:02.983Z,31.10
2018-07-17T12:32:05.190Z,31.10
2018-07-17T12:33:07.394Z,31.10
2018-07-17T12:34:09.666Z,31.20
2018-07-17T12:35:11.878Z,31.20
2018-07-17T12:36:14.086Z,31.30
2018-07-17T12:37:16.257Z,31.40
2018-07-17T12:38:18.454Z,31.60
2018-07-17T12:39:20.661Z,31.60
2018-07-17T12:40:22.861Z,31.70
2018-07-17T12:41:25.105Z,31.80
2018-07-17T12:42:27.374Z,31.90
2018-07-17T12:43:29.519Z,31.90
2018-07-17T12:44:31.742Z,32.00
2018-07-17T12:45:33.975Z,32.00
2018-07-17T12:46:36.190Z,32.10
2018-07-17T12:47:38.385Z,32.20
2018-07-17T12:48:40.628Z,32.20
2018-07-17T12:49:42.814Z,32.20
2018-07-17T12:50:45.138Z,32.20
2018-07-17T12:51:47.419Z,32.30
2018-07-17T12:52:49.609Z,32.40
2018-07-17T12:53:51.823Z,32.40
2018-07-17T12:54:54.058Z,32.50
2018-07-17T12:55:56.271Z,32.50
2018-07-17T12:56:58.484Z,32.50
2018-07-17T12:58:00.673Z,32.50
2018-07-17T12:59:02.922Z,32.50
2018-07-17T13:01:07.469Z,32.40
2018-07-17T13:02:09.730Z,32.40
2018-07-17T13:04:14.186Z,31.80
2018-07-17T13:05:16.418Z,31.70
2018-07-17T13:06:18.635Z,31.50
2018-07-17T13:07:20.857Z,31.40
2018-07-17T13:08:23.089Z,31.30
2018-07-17T13:09:25.350Z,31.10
2018-07-17T13:10:27.715Z,31.10
2018-07-17T13:11:29.938Z,31.10
2018-07-17T13:12:32.140Z,31.00
2018-07-17T13:13:34.351Z,31.10
2018-07-17T13:14:36.568Z,31.00
2018-07-17T13:15:38.800Z,31.00
2018-07-17T13:16:41.010Z,31.00
2018-07-17T13:17:43.224Z,31.10
2018-07-17T13:18:45.407Z,31.30
2018-07-17T13:19:47.599Z,31.40
2018-07-17T13:20:49.814Z,31.50
2018-07-17T13:21:52.039Z,31.70
2018-07-17T13:22:54.242Z,31.80
2018-07-17T13:23:56.545Z,31.90
2018-07-17T13:24:58.740Z,32.00
2018-07-17T13:26:00.960Z,32.10
2018-07-17T13:27:03.183Z,32.20
2018-07-17T13:28:05.422Z,32.30
2018-07-17T13:30:09.923Z,32.50
2018-07-17T13:31:12.160Z,32.50
2018-07-17T13:32:14.373Z,32.40
2018-07-17T13:33:16.570Z,32.40
2018-07-17T13:34:18.799Z,32.30
2018-07-17T13:35:21.003Z,32.20
2018-07-17T13:36:23.186Z,32.20
2018-07-17T13:37:25.413Z,32.10
2018-07-17T13:38:27.617Z,31.90
2018-07-17T13:39:29.847Z,31.70
2018-07-17T13:40:32.057Z,31.50
2018-07-17T13:41:34.269Z,31.20
2018-07-17T13:43:38.747Z,30.90
2018-07-17T13:45:43.138Z,30.60
2018-07-17T13:46:45.349Z,30.50
2018-07-17T13:47:47.546Z,30.40
2018-07-17T13:48:49.752Z,30.30
2018-07-17T13:49:52.054Z,30.20
2018-07-17T13:50:54.294Z,30.20
2018-07-17T13:51:56.559Z,30.30
2018-07-17T13:52:58.893Z,30.30
2018-07-17T13:54:01.090Z,30.20
2018-07-17T13:56:05.586Z,30.00
2018-07-17T13:57:07.806Z,30.00
2018-07-17T13:58:10.008Z,29.80
2018-07-17T13:59:12.239Z,29.80
2018-07-17T14:00:14.457Z,29.60
2018-07-17T14:01:16.666Z,29.60
2018-07-17T14:02:18.929Z,29.50
2018-07-17T14:03:21.086Z,29.40
2018-07-17T14:04:23.294Z,29.40
2018-07-17T14:05:25.538Z,29.40
2018-07-17T14:07:29.952Z,29.60
2018-07-17T14:09:34.486Z,29.80
2018-07-17T14:10:36.757Z,29.90
2018-07-17T14:11:38.986Z,29.90
2018-07-17T14:12:41.227Z,30.00
2018-07-17T14:13:43.434Z,30.00
2018-07-17T14:14:45.669Z,30.10
2018-07-17T14:15:47.913Z,30.10
2018-07-17T14:16:50.102Z,30.10
2018-07-17T14:17:52.286Z,30.10
2018-07-17T14:19:56.732Z,29.90
2018-07-17T14:20:59.000Z,29.90
2018-07-17T14:22:01.266Z,29.70
2018-07-17T14:23:03.661Z,29.60
2018-07-17T14:24:05.869Z,29.50
2018-07-17T14:25:08.066Z,29.40
2018-07-17T14:26:10.262Z,29.30
2018-07-17T14:27:12.462Z,29.20
2018-07-17T14:28:14.657Z,29.20
2018-07-17T14:29:16.858Z,29.10